Time;durP1;ratioP1;P1;durP2;ratioP2;P2;SDS_P1;SDS_P2;PMS_P1;PMS_P2;Temp;Humidity;BMP_temperature;BMP_pressure;BME280_temperature;BME280_humidity;BME280_pressure;Samples;Min_cycle;Max_cycle;Signal;HPM_P1;HPM_P2
2021/11/22 00:01:07;;;;;;;19.90;12.73;;;205.00;2252.80;;;;;;5012041;28;20048;-55
2021/11/22 00:03:34;;;;;;;14.48;9.40;;;205.00;2252.80;;;;;;5012183;28;20072;-55
2021/11/22 00:06:00;;;;;;;110.38;62.58;;;205.00;2252.80;;;;;;5012476;28;20030;-58
2021/11/22 00:08:26;;;;;;;51.13;29.58;;;205.10;2252.80;;;;;;5012255;28;20061;-56
2021/11/22 00:10:52;;;;;;;36.65;22.88;;;205.20;2252.80;;;;;;5012221;28;20022;-57
2021/11/22 00:13:18;;;;;;;29.75;17.67;;;205.00;2252.80;;;;;;5012218;28;20084;-58
2021/11/22 00:15:44;;;;;;;50.50;28.33;;;205.10;2252.80;;;;;;5012135;28;20069;-56
2021/11/22 00:18:10;;;;;;;38.78;21.80;;;205.00;2252.80;;;;;;5012164;28;20488;-57
2021/11/22 00:20:36;;;;;;;116.40;65.85;;;205.20;2252.80;;;;;;5011953;28;20029;-57
2021/11/22 00:23:02;;;;;;;66.60;37.17;;;205.10;2252.80;;;;;;5012083;28;20042;-57
2021/11/22 00:25:28;;;;;;;87.95;49.70;;;205.00;2252.80;;;;;;5012180;28;20026;-57
2021/11/22 00:27:54;;;;;;;16.67;10.13;;;205.00;2252.80;;;;;;5011839;28;20370;-54
2021/11/22 00:30:22;;;;;;;14.30;7.80;;;205.10;2252.80;;;;;;5011896;28;20036;-56
2021/11/22 00:32:47;;;;;;;19.13;11.65;;;205.10;2252.80;;;;;;5011917;28;20034;-57
2021/11/22 00:35:14;;;;;;;30.60;17.85;;;205.00;2252.80;;;;;;5011593;28;20108;-57
2021/11/22 00:37:49;;;;;;;34.83;18.50;;;180.10;2252.80;;;;;;5012153;28;20022;-56
2021/11/22 00:40:16;;;;;;;37.30;23.17;;;204.80;2252.80;;;;;;5011630;28;20034;-58
2021/11/22 00:42:47;;;;;;;19.98;10.77;;;180.10;2252.80;;;;;;5014678;28;20048;-57
2021/11/22 00:45:14;;;;;;;20.52;11.00;;;204.80;2252.80;;;;;;5031324;28;20403;-57
2021/11/22 00:47:40;;;;;;;18.10;9.80;;;180.00;2252.80;;;;;;5031576;28;20434;-58
2021/11/22 00:50:07;;;;;;;31.20;20.95;;;180.10;2252.80;;;;;;5031276;28;20029;-57
2021/11/22 00:52:33;;;;;;;26.98;15.05;;;204.80;2252.80;;;;;;5030852;28;20128;-57
2021/11/22 00:54:58;;;;;;;26.70;18.05;;;204.80;2252.80;;;;;;5031329;28;20137;-56
2021/11/22 00:57:24;;;;;;;21.67;14.52;;;204.80;2252.80;;;;;;5031203;28;20535;-56
2021/11/22 00:59:50;;;;;;;31.95;20.08;;;180.10;2252.80;;;;;;5030940;28;20110;-57
2021/11/22 01:02:16;;;;;;;33.72;24.52;;;180.10;2252.80;;;;;;5030778;28;20114;-56
2021/11/22 01:04:41;;;;;;;14.75;8.43;;;180.10;2252.80;;;;;;5030842;28;20032;-57
2021/11/22 01:07:07;;;;;;;13.23;7.15;;;180.00;2252.80;;;;;;5030231;28;20025;-57
2021/11/22 01:09:33;;;;;;;9.60;6.65;;;180.00;2252.80;;;;;;5030965;28;20099;-57
2021/11/22 01:12:00;;;;;;;14.48;9.10;;;180.10;2252.80;;;;;;5030973;28;20472;-57
2021/11/22 01:14:28;;;;;;;36.28;21.33;;;180.10;2252.80;;;;;;5031219;28;20083;-56
2021/11/22 01:16:53;;;;;;;71.65;43.85;;;204.80;2252.80;;;;;;5030568;28;20026;-55
2021/11/22 01:19:19;;;;;;;13.50;8.13;;;204.90;2252.80;;;;;;5030711;28;20083;-57
2021/11/22 01:21:46;;;;;;;30.75;19.27;;;204.90;2252.80;;;;;;5030532;28;20087;-56
2021/11/22 01:24:12;;;;;;;13.05;7.47;;;204.80;2252.80;;;;;;5030629;28;20511;-57
2021/11/22 01:26:38;;;;;;;43.13;23.65;;;204.80;2252.80;;;;;;5030988;28;20037;-56
2021/11/22 01:29:04;;;;;;;17.58;11.30;;;204.80;2252.80;;;;;;5030445;28;20031;-59
2021/11/22 01:31:30;;;;;;;9.52;5.53;;;204.80;2252.80;;;;;;5030556;28;20033;-56
2021/11/22 01:33:56;;;;;;;12.23;5.93;;;204.80;2252.80;;;;;;5030229;28;20099;-57
2021/11/22 01:36:23;;;;;;;14.27;8.82;;;204.80;2252.80;;;;;;5030358;28;20033;-59
2021/11/22 01:38:49;;;;;;;16.90;8.48;;;180.10;2252.80;;;;;;5030461;28;20025;-55
2021/11/22 01:41:14;;;;;;;26.23;15.10;;;180.10;2252.80;;;;;;5030384;28;20503;-57
2021/11/22 01:43:40;;;;;;;20.48;13.35;;;180.10;2252.80;;;;;;5030679;28;20026;-55
2021/11/22 01:46:06;;;;;;;27.38;17.02;;;180.10;2252.80;;;;;;5030322;28;20021;-57
2021/11/22 01:48:33;;;;;;;82.93;41.80;;;180.10;2252.80;;;;;;5030168;28;20032;-57
2021/11/22 01:50:58;;;;;;;44.08;26.17;;;180.10;2252.80;;;;;;5030531;28;20025;-58
2021/11/22 01:53:24;;;;;;;25.05;15.73;;;180.10;2252.80;;;;;;5030299;28;20499;-56
2021/11/22 01:55:51;;;;;;;65.53;39.13;;;180.10;2252.80;;;;;;5030417;28;20025;-57
2021/11/22 01:58:17;;;;;;;92.32;48.75;;;180.10;2252.80;;;;;;5030333;28;20116;-57
2021/11/22 02:00:49;;;;;;;69.45;35.80;;;180.10;2252.80;;;;;;5029795;28;20072;-58
2021/11/22 02:03:17;;;;;;;57.45;33.35;;;204.80;2252.80;;;;;;5029808;28;20041;-56
2021/11/22 02:05:44;;;;;;;62.30;37.58;;;204.90;2252.80;;;;;;5030116;28;20025;-57
2021/11/22 02:08:12;;;;;;;51.63;31.90;;;204.90;2252.80;;;;;;5030249;28;20113;-59
2021/11/22 02:10:38;;;;;;;10.52;5.78;;;205.00;2252.80;;;;;;5030334;28;20044;-57
2021/11/22 02:13:04;;;;;;;8.98;5.03;;;204.90;2252.80;;;;;;5029859;28;20025;-58
2021/11/22 02:15:30;;;;;;;16.10;9.35;;;204.80;2252.80;;;;;;5029996;28;20506;-56
2021/11/22 02:17:56;;;;;;;16.17;8.20;;;180.10;2252.80;;;;;;5030485;28;20033;-57
2021/11/22 02:20:27;;;;;;;22.98;11.98;;;179.90;2252.80;;;;;;5033978;28;20056;-57
2021/11/22 02:22:57;;;;;;;25.65;15.40;;;179.90;2252.80;;;;;;5033955;28;20029;-57
2021/11/22 02:25:25;;;;;;;73.47;47.78;;;179.80;2252.80;;;;;;5033970;28;20048;-58
2021/11/22 02:27:51;;;;;;;17.00;12.43;;;179.90;2252.80;;;;;;5034157;28;20060;-57
2021/11/22 02:30:22;;;;;;;89.47;52.38;;;180.00;2252.80;;;;;;5033882;28;20068;-56
2021/11/22 02:32:48;;;;;;;88.15;51.47;;;179.90;2252.80;;;;;;5033844;28;20041;-56
2021/11/22 02:35:19;;;;;;;107.78;64.72;;;179.90;2252.80;;;;;;5033784;28;20025;-58
2021/11/22 02:37:45;;;;;;;37.78;26.05;;;180.00;2252.80;;;;;;5033762;28;20467;-56
2021/11/22 02:40:12;;;;;;;34.60;18.92;;;180.10;2252.80;;;;;;5033856;28;20032;-56
2021/11/22 02:42:42;;;;;;;33.70;21.02;;;180.10;2252.80;;;;;;5034010;28;20387;-58
2021/11/22 02:45:19;;;;;;;17.98;12.75;;;180.10;2252.80;;;;;;5033920;28;20021;-57
2021/11/22 02:47:47;;;;;;;21.15;13.63;;;204.80;2252.80;;;;;;5033770;28;20033;-56
2021/11/22 02:50:14;;;;;;;22.17;15.05;;;180.10;2252.80;;;;;;5033413;28;20526;-57
2021/11/22 02:52:42;;;;;;;43.97;26.17;;;179.90;2252.80;;;;;;5033670;28;20029;-58
2021/11/22 02:55:11;;;;;;;30.75;17.13;;;179.90;2252.80;;;;;;5033619;28;20040;-57
2021/11/22 02:57:37;;;;;;;27.30;17.80;;;179.90;2252.80;;;;;;5033722;28;20025;-58
2021/11/22 03:00:10;;;;;;;17.35;9.52;;;179.80;2252.80;;;;;;5033043;28;20465;-57
2021/11/22 03:02:37;;;;;;;37.93;27.97;;;179.70;2252.80;;;;;;5033320;28;20131;-56
2021/11/22 03:05:04;;;;;;;23.73;12.65;;;179.80;2252.80;;;;;;5033105;28;20325;-58
2021/11/22 03:07:30;;;;;;;23.92;14.77;;;179.70;2252.80;;;;;;5033488;28;20033;-57
2021/11/22 03:09:56;;;;;;;14.75;9.45;;;179.70;2252.80;;;;;;5033109;28;20587;-56
2021/11/22 03:12:22;;;;;;;11.25;7.80;;;179.80;2252.80;;;;;;5033000;28;20068;-58
2021/11/22 03:14:48;;;;;;;19.80;13.88;;;179.60;2252.80;;;;;;5033489;28;20388;-59
2021/11/22 03:17:14;;;;;;;33.20;16.95;;;179.60;2252.80;;;;;;5032903;28;20029;-57
2021/11/22 03:19:39;;;;;;;17.88;13.45;;;179.70;2252.80;;;;;;5033210;28;20075;-57
2021/11/22 03:22:06;;;;;;;15.23;10.18;;;179.80;2252.80;;;;;;5032948;28;20041;-57
2021/11/22 03:24:32;;;;;;;12.55;6.05;;;179.80;2252.80;;;;;;5032820;28;20541;-57
2021/11/22 03:27:00;;;;;;;12.07;7.32;;;179.70;2252.80;;;;;;5032975;28;20025;-57
2021/11/22 03:29:26;;;;;;;23.48;14.80;;;179.70;2252.80;;;;;;5031735;28;20029;-56
2021/11/22 03:31:52;;;;;;;17.77;11.85;;;179.70;2252.80;;;;;;5032544;28;20034;-57
2021/11/22 03:34:18;;;;;;;11.63;8.50;;;179.80;2252.80;;;;;;5032988;28;20029;-58
2021/11/22 03:36:44;;;;;;;15.27;9.50;;;179.80;2252.80;;;;;;5032626;28;20029;-57
2021/11/22 03:39:19;;;;;;;12.43;7.03;;;179.70;2252.80;;;;;;5033027;28;20029;-57
2021/11/22 03:41:45;;;;;;;17.20;9.52;;;179.50;2252.80;;;;;;5032418;28;20048;-57
2021/11/22 03:44:11;;;;;;;9.90;6.05;;;179.60;2252.80;;;;;;5033206;28;20030;-56
2021/11/22 03:46:43;;;;;;;10.45;6.28;;;179.60;2252.80;;;;;;5032715;28;20475;-56
2021/11/22 03:49:09;;;;;;;12.27;6.43;;;179.50;2252.80;;;;;;5032773;28;20431;-57
2021/11/22 03:51:35;;;;;;;14.85;10.93;;;179.60;2252.80;;;;;;5032501;28;20040;-57
2021/11/22 03:54:01;;;;;;;10.90;6.85;;;179.60;2252.80;;;;;;5032643;28;20519;-56
2021/11/22 03:56:27;;;;;;;11.13;7.50;;;179.60;2252.80;;;;;;5032455;28;20036;-56
2021/11/22 03:58:52;;;;;;;12.40;8.15;;;179.70;2252.80;;;;;;5032375;28;20041;-57
2021/11/22 04:01:18;;;;;;;23.40;13.43;;;179.80;2252.80;;;;;;5032198;28;20057;-56
2021/11/22 04:03:44;;;;;;;12.48;7.82;;;180.00;2252.80;;;;;;5032260;28;20391;-58
2021/11/22 04:06:10;;;;;;;31.00;24.63;;;204.80;2252.80;;;;;;5032105;28;20419;-58
2021/11/22 04:08:36;;;;;;;28.23;25.15;;;204.90;2252.80;;;;;;5031916;28;20463;-58
2021/11/22 04:11:03;;;;;;;15.13;9.25;;;204.90;2252.80;;;;;;5031871;28;20034;-58
2021/11/22 04:13:28;;;;;;;16.95;11.05;;;205.00;2252.80;;;;;;5032230;28;20086;-57
2021/11/22 04:15:54;;;;;;;14.50;11.93;;;205.20;2252.80;;;;;;5032116;28;20033;-57
2021/11/22 04:18:20;;;;;;;11.77;7.72;;;205.20;2252.80;;;;;;5032043;28;20033;-57
2021/11/22 04:20:46;;;;;;;15.10;13.50;;;205.10;2252.80;;;;;;5031830;28;20040;-56
2021/11/22 04:23:12;;;;;;;10.00;6.45;;;205.10;2252.80;;;;;;5031690;28;20542;-57
2021/11/22 04:25:38;;;;;;;10.25;5.50;;;205.30;2252.80;;;;;;5031999;28;20025;-57
2021/11/22 04:28:06;;;;;;;7.57;4.82;;;205.20;2252.80;;;;;;5031619;28;20052;-55
2021/11/22 04:30:32;;;;;;;9.18;5.07;;;205.20;2252.80;;;;;;5031515;28;20037;-57
2021/11/22 04:32:59;;;;;;;10.10;7.20;;;205.20;2252.80;;;;;;5031780;28;20037;-57
2021/11/22 04:35:25;;;;;;;10.07;8.07;;;205.30;2252.80;;;;;;5031467;28;20045;-57
2021/11/22 04:37:51;;;;;;;11.73;10.38;;;205.30;2252.80;;;;;;5031820;28;20036;-56
2021/11/22 04:40:18;;;;;;;9.57;5.43;;;205.40;2252.80;;;;;;5031760;28;20025;-57
2021/11/22 04:42:48;;;;;;;12.52;7.68;;;205.20;2252.80;;;;;;5031137;28;20048;-57
2021/11/22 04:45:16;;;;;;;13.90;8.55;;;205.20;2252.80;;;;;;5031328;28;20022;-56
2021/11/22 04:47:43;;;;;;;14.77;13.15;;;205.40;2252.80;;;;;;5031558;28;20087;-58
2021/11/22 04:50:09;;;;;;;9.55;7.05;;;205.50;2252.80;;;;;;5031724;28;20049;-57
2021/11/22 04:52:36;;;;;;;13.95;12.52;;;205.50;2252.80;;;;;;5031347;28;20041;-57
2021/11/22 04:55:03;;;;;;;9.65;6.10;;;205.30;2252.80;;;;;;5031224;28;20029;-58
2021/11/22 04:57:29;;;;;;;11.25;6.28;;;205.50;2252.80;;;;;;5031250;28;20028;-57
2021/11/22 04:59:55;;;;;;;9.95;6.05;;;205.40;2252.80;;;;;;5030771;28;20030;-57
2021/11/22 05:02:21;;;;;;;13.55;9.27;;;205.20;2252.80;;;;;;5031121;28;20498;-57
2021/11/22 05:04:46;;;;;;;24.25;17.50;;;205.10;2252.80;;;;;;5031021;28;20061;-57
2021/11/22 05:07:13;;;;;;;15.30;10.52;;;205.20;2252.80;;;;;;5030796;28;20126;-57
2021/11/22 05:09:39;;;;;;;17.15;11.38;;;205.40;2252.80;;;;;;5031114;28;20029;-57
2021/11/22 05:12:05;;;;;;;14.82;9.77;;;205.50;2252.80;;;;;;5030706;28;20121;-57
2021/11/22 05:14:31;;;;;;;21.23;16.02;;;205.70;2252.80;;;;;;5030894;28;20032;-56
2021/11/22 05:16:57;;;;;;;21.70;15.50;;;230.40;2252.80;;;;;;5031107;28;20029;-57
2021/11/22 05:19:29;;;;;;;23.95;16.30;;;230.40;2252.80;;;;;;5030728;28;20032;-57
2021/11/22 05:21:56;;;;;;;24.35;12.43;;;230.40;2252.80;;;;;;5030547;28;20033;-55
2021/11/22 05:24:22;;;;;;;20.77;13.00;;;230.50;2252.80;;;;;;5030614;28;20021;-57
2021/11/22 05:26:48;;;;;;;33.45;19.75;;;230.50;2252.80;;;;;;5030646;28;20033;-57
2021/11/22 05:29:14;;;;;;;35.60;18.48;;;230.70;2252.80;;;;;;5030636;28;20048;-57
2021/11/22 05:31:39;;;;;;;25.20;14.48;;;230.80;2252.80;;;;;;5030810;28;20480;-57
2021/11/22 05:34:05;;;;;;;18.13;10.35;;;230.90;2252.80;;;;;;5030644;28;20029;-57
2021/11/22 05:36:35;;;;;;;84.70;47.22;;;231.00;2252.80;;;;;;5030510;28;20053;-57
2021/11/22 05:39:01;;;;;;;89.90;53.22;;;231.00;2252.80;;;;;;5030631;28;20029;-57
2021/11/22 05:41:27;;;;;;;85.97;40.72;;;231.00;2252.80;;;;;;5030451;28;20064;-58
2021/11/22 05:43:52;;;;;;;62.90;32.75;;;231.00;2252.80;;;;;;5030352;28;20061;-58
2021/11/22 05:46:18;;;;;;;49.17;26.35;;;231.00;2252.80;;;;;;5030683;28;20128;-57
2021/11/22 05:48:44;;;;;;;34.65;19.88;;;231.10;2252.80;;;;;;5030208;28;20468;-58
2021/11/22 05:51:11;;;;;;;11.10;8.38;;;231.20;2252.80;;;;;;5030353;28;20030;-57
2021/11/22 05:53:38;;;;;;;11.43;6.75;;;231.00;2252.80;;;;;;5030176;28;20082;-57
2021/11/22 05:56:05;;;;;;;7.80;4.88;;;230.90;2252.80;;;;;;5030139;28;20049;-57
2021/11/22 05:58:32;;;;;;;9.50;5.63;;;230.80;2252.80;;;;;;5030207;28;20103;-58
2021/11/22 06:00:59;;;;;;;8.90;6.78;;;230.70;2252.80;;;;;;5029977;28;20053;-57
2021/11/22 06:03:27;;;;;;;14.98;8.18;;;230.80;2252.80;;;;;;5029854;28;20041;-58
2021/11/22 06:05:52;;;;;;;17.83;10.60;;;230.70;2252.80;;;;;;5030062;28;20025;-55
2021/11/22 06:08:18;;;;;;;47.03;27.30;;;230.70;2252.80;;;;;;5030175;28;20388;-57
2021/11/22 06:10:45;;;;;;;23.15;13.15;;;230.70;2252.80;;;;;;5029937;28;20498;-57
2021/11/22 06:13:12;;;;;;;18.98;12.73;;;230.90;2252.80;;;;;;5030220;28;20033;-57
2021/11/22 06:15:39;;;;;;;13.65;8.23;;;230.90;2252.80;;;;;;5030310;28;20083;-57
2021/11/22 06:18:05;;;;;;;18.10;11.40;;;231.00;2252.80;;;;;;5030045;28;20079;-57
2021/11/22 06:20:31;;;;;;;23.65;14.45;;;231.00;2252.80;;;;;;5030143;28;20099;-57
2021/11/22 06:22:57;;;;;;;27.00;16.50;;;231.30;2252.80;;;;;;5029886;28;20491;-55
2021/11/22 06:25:23;;;;;;;24.02;16.52;;;231.30;2252.80;;;;;;5029859;28;20070;-56
2021/11/22 06:27:50;;;;;;;13.15;9.45;;;256.10;2252.80;;;;;;5029902;28;20029;-57
2021/11/22 06:30:15;;;;;;;13.52;7.78;;;231.30;2252.80;;;;;;5029656;28;20033;-56
2021/11/22 06:32:41;;;;;;;11.07;7.53;;;231.10;2252.80;;;;;;5029831;28;20030;-56
2021/11/22 06:35:07;;;;;;;15.38;9.52;;;231.00;2252.80;;;;;;5030044;28;20095;-58
2021/11/22 06:37:35;;;;;;;17.00;10.57;;;230.90;2252.80;;;;;;5029865;28;20029;-59
2021/11/22 06:40:03;;;;;;;20.20;12.48;;;230.90;2252.80;;;;;;5029848;28;20028;-57
2021/11/22 06:42:29;;;;;;;37.20;27.10;;;231.20;2252.80;;;;;;5029713;28;20100;-58
2021/11/22 06:44:55;;;;;;;62.72;38.20;;;256.10;2252.80;;;;;;5029630;28;20476;-58
2021/11/22 06:47:23;;;;;;;158.68;109.38;;;256.40;2252.80;;;;;;5030088;28;20100;-58
2021/11/22 06:49:49;;;;;;;113.00;63.25;;;256.60;2252.80;;;;;;5029679;28;20113;-58
2021/11/22 06:52:17;;;;;;;25.65;16.98;;;256.80;2252.80;;;;;;5029420;28;20092;-59
2021/11/22 06:54:43;;;;;;;18.58;11.88;;;256.60;2252.80;;;;;;5029565;28;20021;-60
2021/11/22 06:57:09;;;;;;;25.25;13.73;;;256.40;2252.80;;;;;;5029817;28;20029;-59
2021/11/22 06:59:35;;;;;;;36.17;22.13;;;256.30;2252.80;;;;;;5029504;28;20025;-60
2021/11/22 07:02:01;;;;;;;20.08;12.52;;;256.60;2252.80;;;;;;5029486;28;20077;-59
2021/11/22 07:04:27;;;;;;;18.08;9.65;;;256.40;2252.80;;;;;;5031069;28;20105;-59
2021/11/22 07:06:53;;;;;;;22.48;15.65;;;256.40;2252.80;;;;;;5033196;28;20116;-60
2021/11/22 07:09:19;;;;;;;28.70;21.75;;;256.50;2252.80;;;;;;5033307;28;20025;-60
2021/11/22 07:11:46;;;;;;;21.67;14.45;;;256.70;2252.80;;;;;;5033064;28;20029;-60
2021/11/22 07:14:12;;;;;;;23.63;19.58;;;256.90;2252.80;;;;;;5033035;28;20026;-61
2021/11/22 07:16:39;;;;;;;24.42;13.68;;;281.60;2278.40;;;;;;5033314;28;20029;-59
2021/11/22 07:19:05;;;;;;;13.80;9.90;;;281.80;2278.40;;;;;;5033025;28;20025;-60
2021/11/22 07:21:31;;;;;;;15.90;8.88;;;282.00;2278.40;;;;;;5032918;28;20049;-59
2021/11/22 07:23:58;;;;;;;22.27;15.18;;;281.90;2278.40;;;;;;5033016;28;20025;-59
2021/11/22 07:26:24;;;;;;;19.95;11.93;;;281.70;2278.40;;;;;;5032809;28;20026;-60
2021/11/22 07:28:49;;;;;;;24.48;19.17;;;281.60;2278.40;;;;;;5032674;28;20380;-59
2021/11/22 07:31:15;;;;;;;19.50;15.27;;;281.70;2278.40;;;;;;5032795;28;20022;-60
2021/11/22 07:33:41;;;;;;;17.63;11.05;;;281.70;2278.40;;;;;;5033044;28;20025;-60
2021/11/22 07:36:07;;;;;;;19.45;12.40;;;281.70;2278.40;;;;;;5033027;28;20039;-60
2021/11/22 07:38:35;;;;;;;259.80;178.38;;;281.90;2278.40;;;;;;5032600;28;20018;-60
2021/11/22 07:41:00;;;;;;;335.65;235.63;;;281.90;2278.40;;;;;;5032713;28;20556;-59
2021/11/22 07:43:26;;;;;;;243.57;163.10;;;256.90;2252.80;;;;;;5029195;28;20138;-60
2021/11/22 07:45:52;;;;;;;201.77;134.65;;;281.60;2278.40;;;;;;5032015;28;20113;-60
2021/11/22 07:48:18;;;;;;;244.90;165.07;;;281.70;2278.40;;;;;;5032630;28;20045;-60
2021/11/22 07:50:43;;;;;;;317.15;217.25;;;282.10;2278.40;;;;;;5032332;28;20364;-59
2021/11/22 07:53:10;;;;;;;172.13;115.10;;;307.20;2304.00;;;;;;5032669;28;20026;-59
2021/11/22 07:55:36;;;;;;;115.38;84.25;;;307.60;2304.00;;;;;;5032396;28;20032;-59
2021/11/22 07:58:01;;;;;;;105.72;76.43;;;307.80;2304.00;;;;;;5032423;28;20454;-60
2021/11/22 08:00:28;;;;;;;94.45;73.40;;;307.80;2304.00;;;;;;5031067;28;20052;-60
2021/11/22 08:02:54;;;;;;;150.20;118.78;;;307.80;2304.00;;;;;;5032298;28;20037;-60
2021/11/22 08:05:23;;;;;;;126.15;93.07;;;307.70;2304.00;;;;;;5032432;28;20078;-61
2021/11/22 08:07:50;;;;;;;167.05;119.18;;;307.80;2304.00;;;;;;5032350;28;20030;-60
2021/11/22 08:12:48;;;;;;;145.80;103.13;;;308.10;2304.00;;;;;;5032094;28;20171;-60
2021/11/22 08:15:15;;;;;;;126.85;94.32;;;333.10;2329.60;;;;;;5032064;28;20044;-60
2021/11/22 08:17:43;;;;;;;123.45;85.47;;;333.20;2329.60;;;;;;5031826;28;20048;-60
2021/11/22 08:20:10;;;;;;;205.82;144.98;;;333.20;2329.60;;;;;;5032067;28;20391;-60
2021/11/22 08:22:36;;;;;;;207.40;149.45;;;308.10;2304.00;;;;;;5031565;28;20039;-60
2021/11/22 08:25:04;;;;;;;217.38;151.98;;;307.40;2304.00;;;;;;5031819;28;20101;-60
2021/11/22 08:27:31;;;;;;;188.63;137.23;;;282.50;2278.40;;;;;;5031793;28;20045;-60
2021/11/22 08:29:59;;;;;;;172.95;126.63;;;282.30;2278.40;;;;;;5031414;28;20036;-60
2021/11/22 08:32:25;;;;;;;180.27;128.07;;;307.20;2304.00;;;;;;5031822;28;20511;-60
2021/11/22 08:34:51;;;;;;;184.82;129.38;;;282.50;2278.40;;;;;;5031877;28;20065;-60
2021/11/22 08:37:17;;;;;;;188.68;135.43;;;307.30;2304.00;;;;;;5031817;28;20084;-60
2021/11/22 08:39:43;;;;;;;186.82;136.18;;;307.30;2304.00;;;;;;5031432;28;20403;-60
2021/11/22 08:42:09;;;;;;;187.85;129.52;;;307.30;2304.00;;;;;;5031601;28;20547;-60
2021/11/22 08:44:35;;;;;;;213.35;135.85;;;307.20;2304.00;;;;;;5031411;28;20048;-60
2021/11/22 08:47:02;;;;;;;205.23;142.88;;;282.50;2278.40;;;;;;5031704;28;20145;-60
2021/11/22 08:49:28;;;;;;;211.77;146.48;;;307.40;2304.00;;;;;;5031518;28;20084;-61
2021/11/22 08:51:54;;;;;;;183.75;125.60;;;307.40;2304.00;;;;;;5031240;28;20025;-60
2021/11/22 08:54:20;;;;;;;187.65;132.20;;;307.60;2304.00;;;;;;5031496;28;20104;-60
2021/11/22 08:56:46;;;;;;;177.60;125.90;;;307.80;2304.00;;;;;;5031061;28;20541;-60
2021/11/22 08:59:12;;;;;;;173.68;120.68;;;308.00;2304.00;;;;;;5030985;28;20030;-60
2021/11/22 09:01:38;;;;;;;184.05;132.73;;;308.00;2304.00;;;;;;5031328;28;20045;-60
2021/11/22 09:04:05;;;;;;;212.88;156.75;;;308.10;2304.00;;;;;;5030942;28;20036;-60
2021/11/22 09:06:33;;;;;;;202.98;148.65;;;333.00;2329.60;;;;;;5031012;28;20032;-60
2021/11/22 09:08:58;;;;;;;263.98;197.63;;;333.10;2329.60;;;;;;5031196;28;20053;-60
2021/11/22 09:11:24;;;;;;;293.60;217.25;;;333.20;2329.60;;;;;;5030769;28;20557;-60
2021/11/22 09:13:50;;;;;;;251.70;193.45;;;333.30;2329.60;;;;;;5031386;28;20025;-60
2021/11/22 09:16:16;;;;;;;207.65;147.05;;;333.40;2329.60;;;;;;5030754;28;20388;-60
2021/11/22 09:18:42;;;;;;;371.10;268.05;;;333.60;2329.60;;;;;;5030878;28;20125;-61
2021/11/22 09:21:08;;;;;;;326.83;238.35;;;333.20;2329.60;;;;;;5030917;28;20487;-60
2021/11/22 09:23:33;;;;;;;301.02;221.30;;;333.00;2329.60;;;;;;5030595;28;20038;-60
2021/11/22 09:26:00;;;;;;;281.25;218.27;;;332.90;2329.60;;;;;;5030796;28;20108;-60
2021/11/22 09:28:26;;;;;;;283.98;211.88;;;333.20;2329.60;;;;;;5029720;28;20029;-59
2021/11/22 09:30:52;;;;;;;276.08;219.38;;;333.20;2329.60;;;;;;5030566;28;20380;-59
2021/11/22 09:33:18;;;;;;;278.48;210.93;;;333.50;2329.60;;;;;;5030997;28;20040;-61
2021/11/22 09:35:43;;;;;;;338.33;262.00;;;333.70;2329.60;;;;;;5030444;28;20033;-61
2021/11/22 09:38:09;;;;;;;340.38;255.02;;;333.40;2329.60;;;;;;5030824;28;20494;-60
2021/11/22 09:40:36;;;;;;;255.00;193.20;;;333.00;2329.60;;;;;;5030265;28;20055;-59
2021/11/22 09:43:02;;;;;;;266.45;200.45;;;332.80;2329.60;;;;;;5030112;28;20524;-61
2021/11/22 09:45:29;;;;;;;238.25;173.50;;;332.80;2329.60;;;;;;5030433;28;20029;-60
2021/11/22 09:48:00;;;;;;;236.30;176.70;;;332.80;2329.60;;;;;;5030218;28;20067;-60
2021/11/22 09:50:28;;;;;;;237.10;172.63;;;332.90;2329.60;;;;;;5030290;28;20028;-60
2021/11/22 09:52:54;;;;;;;188.23;141.20;;;332.90;2329.60;;;;;;5030221;28;20476;-61
2021/11/22 09:55:21;;;;;;;226.55;166.20;;;333.00;2329.60;;;;;;5030339;28;20018;-60
2021/11/22 09:57:47;;;;;;;223.80;168.50;;;333.10;2329.60;;;;;;5030128;28;20025;-60
2021/11/22 10:00:14;;;;;;;192.20;150.93;;;333.10;2329.60;;;;;;5029784;28;20037;-60
2021/11/22 10:02:51;;;;;;;170.40;126.78;;;333.20;2329.60;;;;;;5030314;28;20069;-60
2021/11/22 10:05:34;;;;;;;163.75;112.57;;;333.20;2329.60;;;;;;5029249;28;20459;-60
2021/11/22 10:08:18;;;;;;;173.75;117.45;;;333.40;2329.60;;;;;;5030152;28;20035;-60
2021/11/22 10:10:45;;;;;;;165.25;124.38;;;333.20;2329.60;;;;;;5030170;28;20026;-61
2021/11/22 10:13:21;;;;;;;145.95;105.50;;;333.00;2329.60;;;;;;5030144;28;20017;-59
2021/11/22 10:15:47;;;;;;;129.68;101.43;;;333.10;2329.60;;;;;;5029895;28;20071;-59
2021/11/22 10:18:22;;;;;;;120.07;87.85;;;333.00;2329.60;;;;;;5029947;28;20032;-60
2021/11/22 10:20:50;;;;;;;108.07;73.72;;;333.30;2329.60;;;;;;5029954;28;20033;-60
2021/11/22 10:23:27;;;;;;;99.93;68.03;;;333.00;2329.60;;;;;;5029960;28;20095;-60
2021/11/22 10:25:54;;;;;;;83.82;61.90;;;333.00;2329.60;;;;;;5030081;28;20379;-61
2021/11/22 10:28:26;;;;;;;89.40;63.15;;;333.10;2329.60;;;;;;5030108;28;20029;-60
2021/11/22 10:31:04;;;;;;;93.45;70.57;;;333.30;2329.60;;;;;;5029537;28;20156;-62
2021/11/22 10:33:35;;;;;;;96.18;67.03;;;333.40;2329.60;;;;;;5029955;28;20033;-60
2021/11/22 10:36:04;;;;;;;107.05;82.55;;;358.50;2329.60;;;;;;5029874;28;20049;-60
2021/11/22 10:38:36;;;;;;;108.07;77.05;;;358.40;2329.60;;;;;;5029787;28;20476;-60
2021/11/22 10:41:07;;;;;;;92.00;65.43;;;358.50;2329.60;;;;;;5033798;28;20025;-60
2021/11/22 10:43:34;;;;;;;80.95;60.05;;;358.70;2329.60;;;;;;5033497;28;20037;-60
2021/11/22 10:45:59;;;;;;;98.22;69.38;;;358.70;2329.60;;;;;;5033662;28;20414;-59
2021/11/22 10:48:28;;;;;;;105.78;74.55;;;358.40;2329.60;;;;;;5033477;28;20116;-60
2021/11/22 10:51:22;;;;;;;101.20;68.70;;;333.60;2329.60;;;;;;5033267;28;20361;-60
2021/11/22 10:54:03;;;;;;;107.38;75.65;;;358.50;2329.60;;;;;;5033686;28;20029;-60
2021/11/22 10:56:39;;;;;;;83.90;63.55;;;358.50;2329.60;;;;;;5033617;28;20026;-60
2021/11/22 10:59:07;;;;;;;76.93;55.10;;;333.70;2329.60;;;;;;5033221;28;20078;-60
2021/11/22 11:01:48;;;;;;;114.93;87.15;;;358.40;2329.60;;;;;;5033312;28;20077;-60
2021/11/22 11:04:23;;;;;;;95.20;68.00;;;358.60;2329.60;;;;;;5033268;28;20026;-60
2021/11/22 11:06:57;;;;;;;100.82;77.43;;;358.80;2329.60;;;;;;5033429;28;20426;-60
2021/11/22 11:09:25;;;;;;;124.90;87.35;;;358.80;2329.60;;;;;;5033298;28;20029;-60
2021/11/22 11:12:00;;;;;;;107.25;73.63;;;358.70;2329.60;;;;;;5033200;28;20029;-60
2021/11/22 11:14:26;;;;;;;80.10;60.60;;;358.80;2329.60;;;;;;5033204;28;20021;-60
2021/11/22 11:16:54;;;;;;;71.15;52.60;;;359.00;2329.60;;;;;;5033258;28;20025;-59
2021/11/22 11:19:20;;;;;;;72.57;52.88;;;358.90;2329.60;;;;;;5033181;28;20032;-60
2021/11/22 11:21:50;;;;;;;71.20;49.65;;;359.00;2329.60;;;;;;5032745;28;20033;-60
2021/11/22 11:24:18;;;;;;;98.78;68.28;;;358.60;2329.60;;;;;;5032907;28;20148;-60
2021/11/22 11:26:46;;;;;;;74.47;54.47;;;333.70;2329.60;;;;;;5032756;28;20428;-60
2021/11/22 11:29:12;;;;;;;90.18;60.70;;;358.50;2329.60;;;;;;5032957;28;20836;-60
2021/11/22 11:31:39;;;;;;;82.35;60.05;;;358.50;2329.60;;;;;;5033173;28;20040;-58
2021/11/22 11:34:08;;;;;;;74.60;50.70;;;333.70;2329.60;;;;;;5032742;28;20025;-60
2021/11/22 11:36:49;;;;;;;84.15;59.03;;;333.70;2329.60;;;;;;5032662;28;20013;-60
2021/11/22 11:39:28;;;;;;;71.68;54.58;;;333.70;2329.60;;;;;;5032851;28;20030;-59
2021/11/22 11:42:00;;;;;;;85.47;55.67;;;333.60;2329.60;;;;;;5032541;28;20044;-60
2021/11/22 11:44:53;;;;;;;77.80;54.30;;;333.60;2329.60;;;;;;5032409;28;20551;-60
2021/11/22 11:47:31;;;;;;;91.03;61.42;;;358.50;2329.60;;;;;;4991118;28;20034;-60
2021/11/22 11:49:56;;;;;;;92.28;64.68;;;333.70;2329.60;;;;;;4990851;28;20035;-60
2021/11/22 11:52:25;;;;;;;87.82;59.75;;;358.40;2329.60;;;;;;4990060;28;20104;-60
2021/11/22 11:54:52;;;;;;;92.78;66.20;;;358.40;2329.60;;;;;;4991097;28;20030;-60
2021/11/22 11:57:24;;;;;;;124.10;87.50;;;333.70;2329.60;;;;;;4990954;28;20038;-60
2021/11/22 11:59:50;;;;;;;111.88;75.47;;;358.40;2329.60;;;;;;4990669;28;20034;-59